createdAt,value
2023-04-02T00:00:51.511Z,1001.06
2023-04-02T00:01:51.627Z,1001.09
2023-04-02T00:02:51.597Z,1001.11
2023-04-02T00:03:51.584Z,1001.13
2023-04-02T00:04:51.606Z,1001.15
2023-04-02T00:05:51.706Z,1001.14
2023-04-02T00:06:51.655Z,1001.14
2023-04-02T00:07:51.677Z,1001.14
2023-04-02T00:08:51.707Z,1001.24
2023-04-02T00:09:51.734Z,1001.26
2023-04-02T00:10:51.774Z,1001.26
2023-04-02T00:11:51.784Z,1001.25
2023-04-02T00:12:51.813Z,1001.27
2023-04-02T00:13:51.864Z,1001.32
2023-04-02T00:14:51.865Z,1001.35
2023-04-02T00:15:51.893Z,1001.34
2023-04-02T00:16:52.025Z,1001.37
2023-04-02T00:17:51.961Z,1001.36
2023-04-02T00:18:51.969Z,1001.40
2023-04-02T00:19:51.997Z,1001.41
2023-04-02T00:20:52.022Z,1001.38
2023-04-02T00:21:52.046Z,1001.42
2023-04-02T00:22:52.076Z,1001.41
2023-04-02T00:23:52.098Z,1001.46
2023-04-02T00:24:52.125Z,1001.45
2023-04-02T00:25:52.154Z,1001.47
2023-04-02T00:26:52.183Z,1001.50
2023-04-02T00:27:52.216Z,1001.53
2023-04-02T00:28:52.242Z,1001.60
2023-04-02T00:29:52.295Z,1001.55
2023-04-02T00:30:52.284Z,1001.58
2023-04-02T00:31:52.336Z,1001.56
2023-04-02T00:32:52.386Z,1001.60
2023-04-02T00:33:52.359Z,1001.57
2023-04-02T00:34:52.407Z,1001.60
2023-04-02T00:35:52.433Z,1001.64
2023-04-02T00:36:52.474Z,1001.65
2023-04-02T00:37:52.464Z,1001.63
2023-04-02T00:38:52.493Z,1001.69
2023-04-02T00:39:52.516Z,1001.66
2023-04-02T00:40:52.540Z,1001.68
2023-04-02T00:41:52.566Z,1001.72
2023-04-02T00:42:52.596Z,1001.70
2023-04-02T00:43:52.622Z,1001.69
2023-04-02T00:44:52.650Z,1001.73
2023-04-02T00:45:52.749Z,1001.73
2023-04-02T00:46:52.698Z,1001.75
2023-04-02T00:47:52.807Z,1001.81
2023-04-02T00:48:52.754Z,1001.77
2023-04-02T00:49:52.777Z,1001.78
2023-04-02T00:50:53.013Z,1001.83
2023-04-02T00:51:52.984Z,1001.80
2023-04-02T00:52:52.867Z,1001.85
2023-04-02T00:53:53.081Z,1001.84
2023-04-02T00:54:53.067Z,1001.90
2023-04-02T00:55:52.937Z,1001.89
2023-04-02T00:56:52.995Z,1001.83
2023-04-02T00:57:52.987Z,1001.88
2023-04-02T00:58:53.065Z,1001.93
2023-04-02T00:59:53.061Z,1001.88
2023-04-02T01:00:53.067Z,1001.94
2023-04-02T01:01:53.215Z,1001.94
2023-04-02T01:02:53.186Z,1001.98
2023-04-02T01:03:53.166Z,1001.98
2023-04-02T01:04:53.169Z,1002.04
2023-04-02T01:05:53.193Z,1002.01
2023-04-02T01:06:53.223Z,1002.08
2023-04-02T01:07:53.244Z,1002.03
2023-04-02T01:08:53.273Z,1002.04
2023-04-02T01:09:53.305Z,1002.11
2023-04-02T01:10:53.327Z,1002.14
2023-04-02T01:11:53.377Z,1002.14
2023-04-02T01:12:53.375Z,1002.16
2023-04-02T01:13:53.404Z,1002.18
2023-04-02T01:14:53.439Z,1002.18
2023-04-02T01:15:53.484Z,1002.19
2023-04-02T01:16:53.481Z,1002.22
2023-04-02T01:17:53.597Z,1002.21
2023-04-02T01:18:53.546Z,1002.24
2023-04-02T01:19:53.568Z,1002.24
2023-04-02T01:20:53.591Z,1002.28
2023-04-02T01:21:53.608Z,1002.27
2023-04-02T01:22:53.636Z,1002.32
2023-04-02T01:23:53.667Z,1002.33
2023-04-02T01:24:53.688Z,1002.35
2023-04-02T01:25:53.715Z,1002.34
2023-04-02T01:26:53.757Z,1002.34
2023-04-02T01:27:53.764Z,1002.37
2023-04-02T01:28:53.795Z,1002.36
2023-04-02T01:29:53.828Z,1002.41
2023-04-02T01:30:53.847Z,1002.44
2023-04-02T01:31:53.896Z,1002.50
2023-04-02T01:32:53.918Z,1002.50
2023-04-02T01:33:53.952Z,1002.52
2023-04-02T01:34:53.949Z,1002.56
2023-04-02T01:35:53.992Z,1002.58
2023-04-02T01:36:54.001Z,1002.59
2023-04-02T01:37:54.024Z,1002.60
2023-04-02T01:38:54.050Z,1002.63
2023-04-02T01:39:54.076Z,1002.64
2023-04-02T01:40:54.103Z,1002.67
2023-04-02T01:41:54.128Z,1002.73
2023-04-02T01:42:54.152Z,1002.74
2023-04-02T01:43:54.180Z,1002.73
2023-04-02T01:44:54.208Z,1002.79
2023-04-02T01:45:54.230Z,1002.79
2023-04-02T01:46:54.293Z,1002.77
2023-04-02T01:47:54.287Z,1002.80
2023-04-02T01:48:54.304Z,1002.84
2023-04-02T01:49:54.352Z,1002.86
2023-04-02T01:50:54.355Z,1002.90
2023-04-02T01:51:54.379Z,1002.92
2023-04-02T01:52:54.415Z,1002.88
2023-04-02T01:53:54.430Z,1002.91
2023-04-02T01:54:54.459Z,1002.92
2023-04-02T01:55:54.480Z,1002.94
2023-04-02T01:56:54.515Z,1003.02
2023-04-02T01:57:54.539Z,1002.99
2023-04-02T01:58:54.560Z,1003.00
2023-04-02T01:59:54.589Z,1003.06
2023-04-02T02:00:54.653Z,1003.04
2023-04-02T02:01:54.649Z,1003.08
2023-04-02T02:02:54.692Z,1003.15
2023-04-02T02:03:54.688Z,1003.11
2023-04-02T02:04:54.710Z,1003.13
2023-04-02T02:05:54.768Z,1003.14
2023-04-02T02:06:54.761Z,1003.20
2023-04-02T02:07:54.786Z,1003.16
2023-04-02T02:08:54.848Z,1003.20
2023-04-02T02:09:54.866Z,1003.22
2023-04-02T02:10:54.866Z,1003.26
2023-04-02T02:11:54.899Z,1003.27
2023-04-02T02:12:54.917Z,1003.31
2023-04-02T02:13:54.941Z,1003.34
2023-04-02T02:14:54.968Z,1003.35
2023-04-02T02:15:55.042Z,1003.33
2023-04-02T02:16:55.019Z,1003.39
2023-04-02T02:17:55.103Z,1003.37
2023-04-02T02:18:55.077Z,1003.38
2023-04-02T02:19:55.101Z,1003.44
2023-04-02T02:20:55.122Z,1003.45
2023-04-02T02:21:55.169Z,1003.47
2023-04-02T02:22:55.171Z,1003.48
2023-04-02T02:23:55.196Z,1003.49
2023-04-02T02:24:55.224Z,1003.49
2023-04-02T02:25:55.246Z,1003.50
2023-04-02T02:26:55.273Z,1003.54
2023-04-02T02:27:55.295Z,1003.56
2023-04-02T02:28:55.329Z,1003.55
2023-04-02T02:29:55.349Z,1003.61
2023-04-02T02:30:55.382Z,1003.61
2023-04-02T02:31:55.465Z,1003.60
2023-04-02T02:32:55.488Z,1003.70
2023-04-02T02:33:55.447Z,1003.69
2023-04-02T02:34:55.475Z,1003.70
2023-04-02T02:35:55.518Z,1003.73
2023-04-02T02:36:55.524Z,1003.75
2023-04-02T02:37:55.570Z,1003.82
2023-04-02T02:38:55.578Z,1003.84
2023-04-02T02:39:55.612Z,1003.83
2023-04-02T02:40:55.628Z,1003.80
2023-04-02T02:41:55.658Z,1003.92
2023-04-02T02:42:55.678Z,1003.94
2023-04-02T02:43:55.698Z,1003.86
2023-04-02T02:44:55.727Z,1003.94
2023-04-02T02:45:55.771Z,1003.95
2023-04-02T02:46:55.780Z,1003.98
2023-04-02T02:47:55.809Z,1004.00
2023-04-02T02:48:55.838Z,1004.01
2023-04-02T02:49:56.056Z,1004.01
2023-04-02T02:50:55.878Z,1004.03
2023-04-02T02:51:55.899Z,1004.07
2023-04-02T02:52:55.932Z,1004.10
2023-04-02T02:53:55.980Z,1004.11
2023-04-02T02:54:55.981Z,1004.10
2023-04-02T02:55:55.996Z,1004.11
2023-04-02T02:56:56.038Z,1004.13
2023-04-02T02:57:56.051Z,1004.14
2023-04-02T02:58:56.080Z,1004.12
2023-04-02T02:59:56.097Z,1004.20
2023-04-02T03:00:56.231Z,1004.19
2023-04-02T03:01:56.150Z,1004.27
2023-04-02T03:02:56.363Z,1004.22
2023-04-02T03:03:56.350Z,1004.30
2023-04-02T03:04:56.227Z,1004.25
2023-04-02T03:05:56.248Z,1004.33
2023-04-02T03:06:56.274Z,1004.32
2023-04-02T03:07:56.302Z,1004.34
2023-04-02T03:08:56.323Z,1004.33
2023-04-02T03:09:56.367Z,1004.38
2023-04-02T03:10:56.383Z,1004.38
2023-04-02T03:11:56.397Z,1004.41
2023-04-02T03:12:56.421Z,1004.50
2023-04-02T03:13:56.448Z,1004.50
2023-04-02T03:14:56.475Z,1004.50
2023-04-02T03:15:56.546Z,1004.54
2023-04-02T03:16:56.534Z,1004.55
2023-04-02T03:17:56.585Z,1004.53
2023-04-02T03:18:56.579Z,1004.61
2023-04-02T03:19:56.605Z,1004.61
2023-04-02T03:20:56.639Z,1004.59
2023-04-02T03:21:56.649Z,1004.61
2023-04-02T03:22:56.673Z,1004.64
2023-04-02T03:23:56.699Z,1004.71
2023-04-02T03:24:56.737Z,1004.69
2023-04-02T03:25:56.773Z,1004.77
2023-04-02T03:26:56.777Z,1004.75
2023-04-02T03:27:56.800Z,1004.78
2023-04-02T03:28:56.841Z,1004.80
2023-04-02T03:29:56.851Z,1004.81
2023-04-02T03:30:56.905Z,1004.81
2023-04-02T03:31:56.899Z,1004.81
2023-04-02T03:32:56.960Z,1004.87
2023-04-02T03:33:56.964Z,1004.92
2023-04-02T03:34:56.978Z,1004.95
2023-04-02T03:35:57.047Z,1004.93
2023-04-02T03:36:57.026Z,1004.99
2023-04-02T03:37:57.069Z,1004.98
2023-04-02T03:38:57.076Z,1004.99
2023-04-02T03:39:57.105Z,1005.02
2023-04-02T03:40:57.131Z,1005.09
2023-04-02T03:41:57.171Z,1005.09
2023-04-02T03:42:57.181Z,1005.13
2023-04-02T03:43:57.201Z,1005.09
2023-04-02T03:44:57.234Z,1005.16
2023-04-02T03:45:57.254Z,1005.17
2023-04-02T03:46:57.309Z,1005.17
2023-04-02T03:47:57.326Z,1005.20
2023-04-02T03:48:57.338Z,1005.20
2023-04-02T03:49:57.354Z,1005.23
2023-04-02T03:50:57.378Z,1005.24
2023-04-02T03:51:57.401Z,1005.33
2023-04-02T03:52:57.427Z,1005.31
2023-04-02T03:53:57.469Z,1005.35
2023-04-02T03:54:57.483Z,1005.33
2023-04-02T03:55:57.513Z,1005.43
2023-04-02T03:56:57.577Z,1005.37
2023-04-02T03:57:57.585Z,1005.42
2023-04-02T03:58:57.580Z,1005.41
2023-04-02T03:59:57.634Z,1005.42
2023-04-02T04:00:57.625Z,1005.48
2023-04-02T04:01:57.727Z,1005.49
2023-04-02T04:02:57.744Z,1005.50
2023-04-02T04:03:57.780Z,1005.50
2023-04-02T04:04:57.724Z,1005.51
2023-04-02T04:05:57.750Z,1005.54
2023-04-02T04:06:57.777Z,1005.54
2023-04-02T04:07:57.800Z,1005.56
2023-04-02T04:08:57.823Z,1005.61
2023-04-02T04:09:57.855Z,1005.64
2023-04-02T04:10:57.901Z,1005.73
2023-04-02T04:11:57.907Z,1005.72
2023-04-02T04:12:57.924Z,1005.72
2023-04-02T04:13:57.974Z,1005.72
2023-04-02T04:14:57.988Z,1005.78
2023-04-02T04:15:57.999Z,1005.78
2023-04-02T04:16:58.159Z,1005.77
2023-04-02T04:17:58.098Z,1005.79
2023-04-02T04:18:58.073Z,1005.86
2023-04-02T04:19:58.097Z,1005.81
2023-04-02T04:20:58.130Z,1005.89
2023-04-02T04:21:58.160Z,1005.85
2023-04-02T04:22:58.176Z,1005.89
2023-04-02T04:23:58.197Z,1005.94
2023-04-02T04:24:58.218Z,1005.98
2023-04-02T04:25:58.246Z,1005.97
2023-04-02T04:26:58.270Z,1005.99
2023-04-02T04:27:58.297Z,1006.01
2023-04-02T04:28:58.322Z,1005.99
2023-04-02T04:29:58.366Z,1006.04
2023-04-02T04:30:58.369Z,1006.11
2023-04-02T04:31:58.414Z,1006.14
2023-04-02T04:32:58.836Z,1006.11
2023-04-02T04:33:58.453Z,1006.21
2023-04-02T04:34:58.478Z,1006.17
2023-04-02T04:35:58.600Z,1006.28
2023-04-02T04:36:58.516Z,1006.27
2023-04-02T04:37:58.555Z,1006.25
2023-04-02T04:38:58.567Z,1006.31
2023-04-02T04:39:58.594Z,1006.30
2023-04-02T04:40:58.615Z,1006.34
2023-04-02T04:41:58.642Z,1006.40
2023-04-02T04:42:58.668Z,1006.37
2023-04-02T04:43:58.689Z,1006.41
2023-04-02T04:44:58.720Z,1006.45
2023-04-02T04:45:58.799Z,1006.51
2023-04-02T04:46:58.766Z,1006.56
2023-04-02T04:47:58.841Z,1006.52
2023-04-02T04:48:58.823Z,1006.51
2023-04-02T04:49:58.842Z,1006.57
2023-04-02T04:50:58.861Z,1006.65
2023-04-02T04:51:58.888Z,1006.63
2023-04-02T04:52:58.909Z,1006.67
2023-04-02T04:53:58.936Z,1006.67
2023-04-02T04:54:58.961Z,1006.69
2023-04-02T04:56:06.076Z,1006.72
2023-04-02T04:56:59.063Z,1006.75
2023-04-02T04:57:59.038Z,1006.78
2023-04-02T04:58:59.061Z,1006.84
2023-04-02T04:59:59.086Z,1006.84
2023-04-02T05:00:59.107Z,1006.90
2023-04-02T05:01:59.155Z,1006.92
2023-04-02T05:02:59.211Z,1006.93
2023-04-02T05:03:59.181Z,1006.94
2023-04-02T05:04:59.288Z,1006.99
2023-04-02T05:05:59.231Z,1006.98
2023-04-02T05:06:59.252Z,1007.02
2023-04-02T05:08:00.066Z,1007.04
2023-04-02T05:08:59.300Z,1007.06
2023-04-02T05:09:59.326Z,1007.09
2023-04-02T05:10:59.349Z,1007.10
2023-04-02T05:11:59.396Z,1007.12
2023-04-02T05:12:59.401Z,1007.19
2023-04-02T05:13:59.422Z,1007.21
2023-04-02T05:14:59.446Z,1007.22
2023-04-02T05:16:01.117Z,1007.17
2023-04-02T05:16:59.495Z,1007.26
2023-04-02T05:17:59.594Z,1007.24
2023-04-02T05:18:59.543Z,1007.27
2023-04-02T05:19:59.572Z,1007.24
2023-04-02T05:20:59.599Z,1007.29
2023-04-02T05:21:59.619Z,1007.28
2023-04-02T05:22:59.646Z,1007.31
2023-04-02T05:23:59.671Z,1007.34
2023-04-02T05:24:59.695Z,1007.42
2023-04-02T05:25:59.716Z,1007.38
2023-04-02T05:26:59.741Z,1007.39
2023-04-02T05:27:59.765Z,1007.43
2023-04-02T05:28:59.798Z,1007.46
2023-04-02T05:29:59.819Z,1007.50
2023-04-02T05:30:59.867Z,1007.52
2023-04-02T05:31:59.865Z,1007.52
2023-04-02T05:32:59.943Z,1007.54
2023-04-02T05:33:59.940Z,1007.58
2023-04-02T05:34:59.937Z,1007.61
2023-04-02T05:35:59.987Z,1007.63
2023-04-02T05:36:59.985Z,1007.60
2023-04-02T05:38:00.018Z,1007.65
2023-04-02T05:39:00.091Z,1007.64
2023-04-02T05:40:00.113Z,1007.69
2023-04-02T05:41:00.122Z,1007.68
2023-04-02T05:42:00.136Z,1007.69
2023-04-02T05:43:00.175Z,1007.79
2023-04-02T05:44:00.159Z,1007.76
2023-04-02T05:45:00.181Z,1007.79
2023-04-02T05:46:00.209Z,1007.76
2023-04-02T05:47:00.273Z,1007.85
2023-04-02T05:48:00.330Z,1007.85
2023-04-02T05:49:00.304Z,1007.88
2023-04-02T05:50:00.344Z,1007.87
2023-04-02T05:51:00.340Z,1007.97
2023-04-02T05:52:00.379Z,1007.96
2023-04-02T05:53:00.401Z,1008.01
2023-04-02T05:54:00.413Z,1008.04
2023-04-02T05:55:00.426Z,1008.03
2023-04-02T05:56:00.460Z,1008.07
2023-04-02T05:57:00.501Z,1008.11
2023-04-02T05:58:29.309Z,1008.04
2023-04-02T05:59:00.549Z,1008.14
2023-04-02T06:00:00.556Z,1008.14
2023-04-02T06:01:00.576Z,1008.19
2023-04-02T06:02:00.625Z,1008.26
2023-04-02T06:03:00.657Z,1008.29
2023-04-02T06:04:00.705Z,1008.32
2023-04-02T06:05:00.676Z,1008.34
2023-04-02T06:06:00.733Z,1008.35
2023-04-02T06:07:00.723Z,1008.37
2023-04-02T06:08:00.754Z,1008.42
2023-04-02T06:09:00.769Z,1008.37
2023-04-02T06:10:00.801Z,1008.40
2023-04-02T06:11:00.822Z,1008.41
2023-04-02T06:12:00.846Z,1008.44
2023-04-02T06:13:00.864Z,1008.47
2023-04-02T06:14:00.899Z,1008.44
2023-04-02T06:15:00.928Z,1008.47
2023-04-02T06:16:00.941Z,1008.51
2023-04-02T06:17:00.995Z,1008.54
2023-04-02T06:18:01.041Z,1008.58
2023-04-02T06:19:01.021Z,1008.60
2023-04-02T06:20:01.055Z,1008.58
2023-04-02T06:21:01.060Z,1008.67
2023-04-02T06:22:01.102Z,1008.74
2023-04-02T06:23:01.106Z,1008.70
2023-04-02T06:24:01.154Z,1008.74
2023-04-02T06:25:01.157Z,1008.80
2023-04-02T06:26:01.196Z,1008.83
2023-04-02T06:27:01.208Z,1008.82
2023-04-02T06:28:01.229Z,1008.83
2023-04-02T06:29:01.257Z,1008.85
2023-04-02T06:30:01.291Z,1008.92
2023-04-02T06:31:01.331Z,1008.88
2023-04-02T06:32:01.329Z,1008.94
2023-04-02T06:33:01.403Z,1008.96
2023-04-02T06:34:01.384Z,1009.00
2023-04-02T06:35:01.405Z,1009.05
2023-04-02T06:36:01.488Z,1009.05
2023-04-02T06:37:01.452Z,1009.11
2023-04-02T06:38:01.504Z,1009.08
2023-04-02T06:39:01.500Z,1009.13
2023-04-02T06:40:01.577Z,1009.11
2023-04-02T06:41:01.548Z,1009.18
2023-04-02T06:42:01.577Z,1009.17
2023-04-02T06:43:01.602Z,1009.17
2023-04-02T06:44:01.627Z,1009.23
2023-04-02T06:45:01.692Z,1009.21
2023-04-02T06:46:01.711Z,1009.26
2023-04-02T06:47:01.701Z,1009.30
2023-04-02T06:48:01.754Z,1009.31
2023-04-02T06:49:01.786Z,1009.33
2023-04-02T06:50:01.801Z,1009.36
2023-04-02T06:51:01.804Z,1009.34
2023-04-02T06:52:01.842Z,1009.35
2023-04-02T06:53:01.854Z,1009.45
2023-04-02T06:54:01.895Z,1009.36
2023-04-02T06:55:01.909Z,1009.43
2023-04-02T06:56:01.928Z,1009.49
2023-04-02T06:57:02.018Z,1009.51
2023-04-02T06:58:01.976Z,1009.52
2023-04-02T06:59:01.991Z,1009.56
2023-04-02T07:00:02.015Z,1009.56
2023-04-02T07:01:02.039Z,1009.54
2023-04-02T07:02:02.078Z,1009.61
2023-04-02T07:03:02.138Z,1009.64
2023-04-02T07:04:02.113Z,1009.62
2023-04-02T07:05:02.184Z,1009.68
2023-04-02T07:06:02.164Z,1009.73
2023-04-02T07:07:02.184Z,1009.72
2023-04-02T07:08:02.211Z,1009.77
2023-04-02T07:09:02.233Z,1009.78
2023-04-02T07:10:02.285Z,1009.79
2023-04-02T07:11:02.280Z,1009.84
2023-04-02T07:12:02.308Z,1009.87
2023-04-02T07:13:02.336Z,1009.93
2023-04-02T07:14:02.356Z,1009.93
2023-04-02T07:15:02.389Z,1009.96
2023-04-02T07:16:02.502Z,1009.94
2023-04-02T07:17:02.424Z,1010.04
2023-04-02T07:18:02.469Z,1010.04
2023-04-02T07:19:02.484Z,1010.09
2023-04-02T07:20:02.500Z,1010.11
2023-04-02T07:21:02.522Z,1010.12
2023-04-02T07:22:02.565Z,1010.18
2023-04-02T07:23:02.569Z,1010.21
2023-04-02T07:24:02.623Z,1010.22
2023-04-02T07:25:02.619Z,1010.23
2023-04-02T07:26:02.667Z,1010.28
2023-04-02T07:27:02.687Z,1010.32
2023-04-02T07:28:02.697Z,1010.28
2023-04-02T07:29:02.720Z,1010.36
2023-04-02T07:30:02.743Z,1010.37
2023-04-02T07:31:02.817Z,1010.35
2023-04-02T07:32:02.792Z,1010.37
2023-04-02T07:33:02.827Z,1010.48
2023-04-02T07:34:02.843Z,1010.46
2023-04-02T07:35:02.867Z,1010.43
2023-04-02T07:36:03.085Z,1010.48
2023-04-02T07:37:02.914Z,1010.53
2023-04-02T07:38:02.937Z,1010.53
2023-04-02T07:39:02.961Z,1010.53
2023-04-02T07:40:02.991Z,1010.58
2023-04-02T07:41:03.065Z,1010.59
2023-04-02T07:42:03.068Z,1010.58
2023-04-02T07:43:03.058Z,1010.60
2023-04-02T07:44:03.084Z,1010.65
2023-04-02T07:45:05.350Z,1010.66
2023-04-02T07:46:03.133Z,1010.70
2023-04-02T07:47:03.200Z,1010.72
2023-04-02T07:48:03.256Z,1010.70
2023-04-02T07:49:03.205Z,1010.77
2023-04-02T07:50:03.232Z,1010.80
2023-04-02T07:51:03.253Z,1010.85
2023-04-02T07:52:03.279Z,1010.86
2023-04-02T07:53:03.303Z,1010.89
2023-04-02T07:54:03.348Z,1010.90
2023-04-02T07:55:03.358Z,1010.86
2023-04-02T07:56:03.392Z,1010.91
2023-04-02T07:57:03.438Z,1010.89
2023-04-02T07:58:03.444Z,1010.99
2023-04-02T07:59:03.450Z,1010.96
2023-04-02T08:00:03.472Z,1010.97
2023-04-02T08:01:03.501Z,1011.00
2023-04-02T08:02:03.594Z,1010.97
2023-04-02T08:03:03.765Z,1010.99
2023-04-02T08:04:03.621Z,1011.04
2023-04-02T08:05:03.593Z,1011.03
2023-04-02T08:06:03.622Z,1011.04
2023-04-02T08:07:03.650Z,1011.06
2023-04-02T08:08:03.741Z,1011.09
2023-04-02T08:09:03.708Z,1011.11
2023-04-02T08:10:03.715Z,1011.11
2023-04-02T08:11:03.746Z,1011.14
2023-04-02T08:12:03.765Z,1011.17
2023-04-02T08:13:03.812Z,1011.19
2023-04-02T08:14:03.851Z,1011.26
2023-04-02T08:15:03.859Z,1011.27
2023-04-02T08:16:03.864Z,1011.24
2023-04-02T08:17:03.980Z,1011.30
2023-04-02T08:18:03.945Z,1011.37
2023-04-02T08:19:03.943Z,1011.33
2023-04-02T08:20:03.960Z,1011.35
2023-04-02T08:21:03.999Z,1011.36
2023-04-02T08:22:04.015Z,1011.42
2023-04-02T08:23:04.060Z,1011.45
2023-04-02T08:24:04.061Z,1011.49
2023-04-02T08:25:04.086Z,1011.53
2023-04-02T08:26:04.109Z,1011.53
2023-04-02T08:27:04.138Z,1011.55
2023-04-02T08:28:04.158Z,1011.60
2023-04-02T08:29:04.189Z,1011.58
2023-04-02T08:30:04.236Z,1011.60
2023-04-02T08:31:04.263Z,1011.62
2023-04-02T08:32:04.259Z,1011.61
2023-04-02T08:33:04.326Z,1011.65
2023-04-02T08:34:04.311Z,1011.69
2023-04-02T08:35:04.370Z,1011.69
2023-04-02T08:36:04.392Z,1011.71
2023-04-02T08:37:04.382Z,1011.71
2023-04-02T08:38:04.404Z,1011.74
2023-04-02T08:39:04.439Z,1011.84
2023-04-02T08:40:04.456Z,1011.86
2023-04-02T08:41:04.490Z,1011.81
2023-04-02T08:42:04.529Z,1011.86
2023-04-02T08:43:04.534Z,1011.92
2023-04-02T08:44:04.553Z,1011.93
2023-04-02T08:45:13.695Z,1011.94
2023-04-02T08:46:04.656Z,1011.94
2023-04-02T08:47:04.639Z,1012.00
2023-04-02T08:48:04.699Z,1012.02
2023-04-02T08:49:04.680Z,1012.01
2023-04-02T08:50:04.730Z,1012.05
2023-04-02T08:51:04.743Z,1012.13
2023-04-02T08:52:04.769Z,1012.09
2023-04-02T08:53:04.791Z,1012.11
2023-04-02T08:54:04.802Z,1012.13
2023-04-02T08:55:04.907Z,1012.18
2023-04-02T08:56:04.847Z,1012.16
2023-04-02T08:57:04.921Z,1012.20
2023-04-02T08:58:04.898Z,1012.22
2023-04-02T08:59:04.928Z,1012.22
2023-04-02T09:00:04.967Z,1012.23
2023-04-02T09:01:04.971Z,1012.27
2023-04-02T09:02:05.078Z,1012.31
2023-04-02T09:03:05.094Z,1012.36
2023-04-02T09:04:05.044Z,1012.33
2023-04-02T09:05:05.218Z,1012.35
2023-04-02T09:06:05.094Z,1012.40
2023-04-02T09:07:05.121Z,1012.40
2023-04-02T09:08:05.152Z,1012.42
2023-04-02T09:09:05.179Z,1012.43
2023-04-02T09:10:05.194Z,1012.46
2023-04-02T09:11:05.241Z,1012.47
2023-04-02T09:12:05.272Z,1012.46
2023-04-02T09:13:05.305Z,1012.52
2023-04-02T09:14:05.296Z,1012.51
2023-04-02T09:15:05.322Z,1012.57
2023-04-02T09:16:05.481Z,1012.58
2023-04-02T09:17:05.370Z,1012.57
2023-04-02T09:18:05.470Z,1012.59
2023-04-02T09:19:05.443Z,1012.57
2023-04-02T09:20:05.445Z,1012.67
2023-04-02T09:21:05.477Z,1012.63
2023-04-02T09:22:05.502Z,1012.67
2023-04-02T09:23:05.534Z,1012.72
2023-04-02T09:24:05.543Z,1012.72
2023-04-02T09:25:05.571Z,1012.71
2023-04-02T09:26:05.595Z,1012.75
2023-04-02T09:27:05.628Z,1012.76
2023-04-02T09:28:05.650Z,1012.75
2023-04-02T09:29:05.671Z,1012.79
2023-04-02T09:30:05.700Z,1012.75
2023-04-02T09:31:07.173Z,1012.79
2023-04-02T09:32:05.744Z,1012.80
2023-04-02T09:33:05.805Z,1012.82
2023-04-02T09:34:05.821Z,1012.87
2023-04-02T09:35:14.991Z,1012.85
2023-04-02T09:36:05.885Z,1012.92
2023-04-02T09:37:05.876Z,1012.93
2023-04-02T09:38:05.899Z,1012.95
2023-04-02T09:39:05.928Z,1012.93
2023-04-02T09:40:05.983Z,1013.06
2023-04-02T09:41:05.976Z,1013.09
2023-04-02T09:42:06.134Z,1013.04
2023-04-02T09:43:06.026Z,1013.10
2023-04-02T09:44:06.048Z,1013.12
2023-04-02T09:45:06.097Z,1013.13
2023-04-02T09:46:06.096Z,1013.17
2023-04-02T09:47:06.215Z,1013.22
2023-04-02T09:48:06.199Z,1013.19
2023-04-02T09:49:06.173Z,1013.23
2023-04-02T09:50:06.217Z,1013.26
2023-04-02T09:51:06.227Z,1013.28
2023-04-02T09:52:06.255Z,1013.31
2023-04-02T09:53:06.277Z,1013.35
2023-04-02T09:54:06.347Z,1013.35
2023-04-02T09:55:06.353Z,1013.37
2023-04-02T09:56:06.355Z,1013.35
2023-04-02T09:57:06.432Z,1013.37
2023-04-02T09:58:06.451Z,1013.41
2023-04-02T09:59:06.439Z,1013.47
2023-04-02T10:00:08.794Z,1013.50
2023-04-02T10:01:06.523Z,1013.49
2023-04-02T10:02:06.497Z,1013.55
2023-04-02T10:03:06.533Z,1013.56
2023-04-02T10:04:06.679Z,1013.55
2023-04-02T10:05:06.573Z,1013.59
2023-04-02T10:06:06.618Z,1013.66
2023-04-02T10:07:06.624Z,1013.68
2023-04-02T10:08:06.647Z,1013.73
2023-04-02T10:09:06.774Z,1013.72
2023-04-02T10:10:06.702Z,1013.70
2023-04-02T10:11:06.726Z,1013.77
2023-04-02T10:12:06.747Z,1013.77
2023-04-02T10:13:06.779Z,1013.79
2023-04-02T10:14:06.802Z,1013.75
2023-04-02T10:15:06.828Z,1013.80
2023-04-02T10:16:06.962Z,1013.78
2023-04-02T10:17:06.911Z,1013.81
2023-04-02T10:18:06.949Z,1013.78
2023-04-02T10:19:06.927Z,1013.87
2023-04-02T10:20:06.945Z,1013.80
2023-04-02T10:21:06.993Z,1013.87
2023-04-02T10:22:07.021Z,1013.85
2023-04-02T10:23:07.028Z,1013.87
2023-04-02T10:24:07.048Z,1013.95
2023-04-02T10:25:07.074Z,1013.95
2023-04-02T10:26:07.104Z,1014.00
2023-04-02T10:27:07.131Z,1013.99
2023-04-02T10:28:07.152Z,1014.00
2023-04-02T10:29:07.289Z,1013.99
2023-04-02T10:30:07.200Z,1014.04
2023-04-02T10:31:07.342Z,1014.08
2023-04-02T10:32:07.269Z,1014.06
2023-04-02T10:33:07.379Z,1014.08
2023-04-02T10:34:07.301Z,1014.00
2023-04-02T10:35:07.342Z,1014.08
2023-04-02T10:36:07.403Z,1014.11
2023-04-02T10:37:07.379Z,1014.14
2023-04-02T10:38:07.428Z,1014.11
2023-04-02T10:39:07.435Z,1014.13
2023-04-02T10:40:07.472Z,1014.13
2023-04-02T10:41:07.481Z,1014.20
2023-04-02T10:42:07.507Z,1014.14
2023-04-02T10:43:07.542Z,1014.12
2023-04-02T10:44:19.027Z,1014.16
2023-04-02T10:45:07.584Z,1014.25
2023-04-02T10:46:07.634Z,1014.20
2023-04-02T10:47:07.641Z,1014.22
2023-04-02T10:48:07.710Z,1014.20
2023-04-02T10:49:07.758Z,1014.24
2023-04-02T10:50:07.711Z,1014.22
2023-04-02T10:51:07.736Z,1014.28
2023-04-02T10:52:07.759Z,1014.28
2023-04-02T10:53:07.799Z,1014.28
2023-04-02T10:54:07.841Z,1014.36
2023-04-02T10:55:07.838Z,1014.31
2023-04-02T10:56:07.862Z,1014.33
2023-04-02T10:57:07.957Z,1014.32
2023-04-02T10:58:07.923Z,1014.39
2023-04-02T10:59:07.942Z,1014.45
2023-04-02T11:00:07.978Z,1014.44
2023-04-02T11:01:08.069Z,1014.45
2023-04-02T11:02:08.025Z,1014.46
2023-04-02T11:03:08.195Z,1014.50
2023-04-02T11:04:08.068Z,1014.41
2023-04-02T11:05:08.093Z,1014.46
2023-04-02T11:06:08.118Z,1014.52
2023-04-02T11:07:14.634Z,1014.52
2023-04-02T11:08:08.172Z,1014.61
2023-04-02T11:09:08.202Z,1014.67
2023-04-02T11:10:08.241Z,1014.68
2023-04-02T11:11:08.266Z,1014.68
2023-04-02T11:12:08.273Z,1014.72
2023-04-02T11:13:08.304Z,1014.77
2023-04-02T11:14:08.345Z,1014.79
2023-04-02T11:15:08.355Z,1014.82
2023-04-02T11:16:08.410Z,1014.79
2023-04-02T11:17:08.404Z,1014.79
2023-04-02T11:18:08.426Z,1014.79
2023-04-02T11:19:08.460Z,1014.80
2023-04-02T11:20:08.477Z,1014.78
2023-04-02T11:21:08.502Z,1014.84
2023-04-02T11:22:08.533Z,1014.86
2023-04-02T11:23:08.566Z,1014.86
2023-04-02T11:24:08.582Z,1014.87
2023-04-02T11:25:08.607Z,1014.88
2023-04-02T11:26:08.652Z,1014.90
2023-04-02T11:27:08.669Z,1014.91
2023-04-02T11:28:08.685Z,1014.94
2023-04-02T11:29:08.769Z,1014.96
2023-04-02T11:30:08.738Z,1014.96
2023-04-02T11:31:08.791Z,1014.96
2023-04-02T11:32:08.792Z,1014.99
2023-04-02T11:33:08.900Z,1015.00
2023-04-02T11:34:08.839Z,1015.06
2023-04-02T11:35:08.867Z,1015.07
2023-04-02T11:36:08.935Z,1015.03
2023-04-02T11:37:08.918Z,1015.06
2023-04-02T11:38:08.945Z,1015.07
2023-04-02T11:39:16.938Z,1015.04
2023-04-02T11:40:08.997Z,1015.03
2023-04-02T11:41:09.028Z,1015.03
2023-04-02T11:42:09.071Z,1015.07
2023-04-02T11:43:09.077Z,1015.08
2023-04-02T11:44:09.100Z,1015.09
2023-04-02T11:45:09.127Z,1015.10
2023-04-02T11:46:09.172Z,1015.09
2023-04-02T11:47:09.181Z,1015.10
2023-04-02T11:48:09.208Z,1015.12
2023-04-02T11:49:09.233Z,1015.19
2023-04-02T11:50:09.367Z,1015.14
2023-04-02T11:51:09.285Z,1015.13
2023-04-02T11:52:12.129Z,1015.14
2023-04-02T11:53:09.338Z,1015.15
2023-04-02T11:54:09.360Z,1015.21
2023-04-02T11:55:09.387Z,1015.23
2023-04-02T11:56:09.414Z,1015.19
2023-04-02T11:57:09.534Z,1015.23
2023-04-02T11:58:09.487Z,1015.25
2023-04-02T11:59:09.493Z,1015.19
2023-04-02T12:00:09.698Z,1015.24
2023-04-02T12:01:09.545Z,1015.23
2023-04-02T12:02:09.611Z,1015.21
2023-04-02T12:03:09.646Z,1015.20
2023-04-02T12:04:09.620Z,1015.23
2023-04-02T12:05:09.665Z,1015.24
2023-04-02T12:06:09.674Z,1015.20